sensor_id;sensor_type;location;lat;lon;timestamp;pressure;altitude;pressure_sealevel;temperature;humidity
7990;BME280;4040;42.848;23.034;2023-01-09T00:00:58;95226.84;;;-2.50;100.00
7990;BME280;4040;42.848;23.034;2023-01-09T00:06:47;95233.50;;;-2.53;100.00
7990;BME280;4040;42.848;23.034;2023-01-09T00:12:40;95225.13;;;-2.63;100.00
7990;BME280;4040;42.848;23.034;2023-01-09T00:18:30;95217.81;;;-2.83;100.00
7990;BME280;4040;42.848;23.034;2023-01-09T00:24:19;95220.91;;;-2.81;100.00
7990;BME280;4040;42.848;23.034;2023-01-09T00:30:09;95222.47;;;-2.80;100.00
7990;BME280;4040;42.848;23.034;2023-01-09T00:35:59;95227.72;;;-2.88;100.00
7990;BME280;4040;42.848;23.034;2023-01-09T00:41:51;95218.91;;;-2.75;100.00
7990;BME280;4040;42.848;23.034;2023-01-09T00:47:42;95218.44;;;-2.86;100.00
7990;BME280;4040;42.848;23.034;2023-01-09T00:53:36;95226.47;;;-2.82;100.00
7990;BME280;4040;42.848;23.034;2023-01-09T00:59:26;95224.28;;;-2.89;100.00
7990;BME280;4040;42.848;23.034;2023-01-09T01:05:15;95198.56;;;-2.92;100.00
7990;BME280;4040;42.848;23.034;2023-01-09T01:11:36;95201.03;;;-3.04;100.00
7990;BME280;4040;42.848;23.034;2023-01-09T01:17:25;95200.13;;;-2.91;100.00
7990;BME280;4040;42.848;23.034;2023-01-09T01:23:13;95204.88;;;-3.10;100.00
7990;BME280;4040;42.848;23.034;2023-01-09T01:29:04;95197.28;;;-3.11;100.00
7990;BME280;4040;42.848;23.034;2023-01-09T01:34:52;95170.59;;;-3.27;100.00
7990;BME280;4040;42.848;23.034;2023-01-09T01:40:41;95181.13;;;-3.27;100.00
7990;BME280;4040;42.848;23.034;2023-01-09T01:46:32;95168.72;;;-3.35;100.00
7990;BME280;4040;42.848;23.034;2023-01-09T01:52:21;95158.63;;;-3.33;100.00
7990;BME280;4040;42.848;23.034;2023-01-09T01:58:13;95140.53;;;-3.26;100.00
7990;BME280;4040;42.848;23.034;2023-01-09T02:04:04;95148.34;;;-3.04;100.00
7990;BME280;4040;42.848;23.034;2023-01-09T02:09:53;95148.16;;;-3.16;100.00
7990;BME280;4040;42.848;23.034;2023-01-09T02:15:50;95143.63;;;-3.24;100.00
7990;BME280;4040;42.848;23.034;2023-01-09T02:21:50;95142.84;;;-3.33;100.00
7990;BME280;4040;42.848;23.034;2023-01-09T02:28:08;95141.91;;;-3.37;100.00
7990;BME280;4040;42.848;23.034;2023-01-09T02:34:06;95111.06;;;-3.45;100.00
7990;BME280;4040;42.848;23.034;2023-01-09T02:40:04;95128.56;;;-3.49;100.00
7990;BME280;4040;42.848;23.034;2023-01-09T02:45:56;95109.50;;;-3.46;100.00
7990;BME280;4040;42.848;23.034;2023-01-09T02:51:51;95108.72;;;-3.55;100.00
7990;BME280;4040;42.848;23.034;2023-01-09T02:57:50;95112.31;;;-3.34;100.00
7990;BME280;4040;42.848;23.034;2023-01-09T03:03:46;95108.91;;;-3.43;100.00
7990;BME280;4040;42.848;23.034;2023-01-09T03:09:49;95119.72;;;-3.53;100.00
7990;BME280;4040;42.848;23.034;2023-01-09T03:16:05;95123.00;;;-3.39;100.00
7990;BME280;4040;42.848;23.034;2023-01-09T03:21:55;95127.19;;;-3.38;100.00
7990;BME280;4040;42.848;23.034;2023-01-09T03:27:46;95118.81;;;-3.40;100.00
7990;BME280;4040;42.848;23.034;2023-01-09T03:33:35;95112.66;;;-3.10;100.00
7990;BME280;4040;42.848;23.034;2023-01-09T03:39:24;95117.66;;;-2.66;100.00
7990;BME280;4040;42.848;23.034;2023-01-09T03:45:14;95113.91;;;-2.31;100.00
7990;BME280;4040;42.848;23.034;2023-01-09T03:51:03;95106.22;;;-1.99;100.00
7990;BME280;4040;42.848;23.034;2023-01-09T03:56:52;95106.13;;;-1.73;100.00
7990;BME280;4040;42.848;23.034;2023-01-09T04:02:42;95091.63;;;-1.50;100.00
7990;BME280;4040;42.848;23.034;2023-01-09T04:12:32;95080.19;;;-1.13;100.00
7990;BME280;4040;42.848;23.034;2023-01-09T04:18:22;95089.06;;;-1.09;100.00
7990;BME280;4040;42.848;23.034;2023-01-09T04:24:11;95085.09;;;-1.03;100.00
7990;BME280;4040;42.848;23.034;2023-01-09T04:30:00;95098.38;;;-0.91;100.00
7990;BME280;4040;42.848;23.034;2023-01-09T04:35:50;95088.19;;;-0.60;100.00
7990;BME280;4040;42.848;23.034;2023-01-09T04:41:39;95091.09;;;-0.53;100.00
7990;BME280;4040;42.848;23.034;2023-01-09T04:47:36;95092.69;;;-0.40;100.00
7990;BME280;4040;42.848;23.034;2023-01-09T04:53:27;95087.09;;;-0.39;100.00
7990;BME280;4040;42.848;23.034;2023-01-09T04:59:15;95092.28;;;-0.30;100.00
7990;BME280;4040;42.848;23.034;2023-01-09T05:05:04;95100.25;;;-0.18;100.00
7990;BME280;4040;42.848;23.034;2023-01-09T05:15:17;95082.94;;;0.28;100.00
7990;BME280;4040;42.848;23.034;2023-01-09T05:21:06;95084.38;;;0.26;100.00
7990;BME280;4040;42.848;23.034;2023-01-09T05:26:55;95073.66;;;0.22;100.00
7990;BME280;4040;42.848;23.034;2023-01-09T05:32:46;95077.88;;;0.35;100.00
7990;BME280;4040;42.848;23.034;2023-01-09T05:38:34;95080.75;;;0.54;100.00
7990;BME280;4040;42.848;23.034;2023-01-09T05:44:23;95022.78;;;0.17;100.00
7990;BME280;4040;42.848;23.034;2023-01-09T05:50:13;95059.78;;;0.49;100.00
7990;BME280;4040;42.848;23.034;2023-01-09T05:56:02;95065.06;;;0.61;100.00
7990;BME280;4040;42.848;23.034;2023-01-09T06:01:51;95052.69;;;0.65;100.00
7990;BME280;4040;42.848;23.034;2023-01-09T06:07:41;95048.47;;;1.00;100.00
7990;BME280;4040;42.848;23.034;2023-01-09T06:17:52;95049.97;;;1.13;100.00
7990;BME280;4040;42.848;23.034;2023-01-09T06:23:42;95048.56;;;1.43;100.00
7990;BME280;4040;42.848;23.034;2023-01-09T06:29:30;95047.63;;;1.51;100.00
7990;BME280;4040;42.848;23.034;2023-01-09T06:35:19;95029.50;;;1.53;100.00
7990;BME280;4040;42.848;23.034;2023-01-09T06:41:10;95045.38;;;1.65;100.00
7990;BME280;4040;42.848;23.034;2023-01-09T06:46:59;95043.34;;;1.74;100.00
7990;BME280;4040;42.848;23.034;2023-01-09T06:52:48;95036.34;;;1.97;100.00
7990;BME280;4040;42.848;23.034;2023-01-09T06:58:37;95037.31;;;2.20;100.00
7990;BME280;4040;42.848;23.034;2023-01-09T07:04:26;95041.59;;;2.55;100.00
7990;BME280;4040;42.848;23.034;2023-01-09T07:10:15;95054.16;;;2.74;100.00
7990;BME280;4040;42.848;23.034;2023-01-09T07:20:27;95057.59;;;2.90;100.00
7990;BME280;4040;42.848;23.034;2023-01-09T07:26:16;95062.56;;;2.76;100.00
7990;BME280;4040;42.848;23.034;2023-01-09T07:32:04;95080.41;;;2.91;100.00
7990;BME280;4040;42.848;23.034;2023-01-09T07:37:55;95082.88;;;2.84;100.00
7990;BME280;4040;42.848;23.034;2023-01-09T07:43:43;95073.28;;;2.79;100.00
7990;BME280;4040;42.848;23.034;2023-01-09T07:49:32;95067.44;;;3.24;100.00
7990;BME280;4040;42.848;23.034;2023-01-09T07:55:22;95047.06;;;3.50;100.00
7990;BME280;4040;42.848;23.034;2023-01-09T08:01:11;95052.38;;;4.52;100.00
7990;BME280;4040;42.848;23.034;2023-01-09T08:07:00;95057.28;;;5.24;100.00
7990;BME280;4040;42.848;23.034;2023-01-09T08:12:50;95035.41;;;6.07;100.00
7990;BME280;4040;42.848;23.034;2023-01-09T08:23:01;95033.50;;;7.69;100.00
7990;BME280;4040;42.848;23.034;2023-01-09T08:28:52;95017.41;;;9.83;100.00
7990;BME280;4040;42.848;23.034;2023-01-09T08:34:40;95022.50;;;12.63;68.97
7990;BME280;4040;42.848;23.034;2023-01-09T08:40:29;95023.94;;;14.02;59.59
7990;BME280;4040;42.848;23.034;2023-01-09T08:46:20;95016.13;;;14.79;53.47
7990;BME280;4040;42.848;23.034;2023-01-09T08:52:26;95021.25;;;11.85;61.11
7990;BME280;4040;42.848;23.034;2023-01-09T08:58:16;95010.81;;;12.17;64.33
7990;BME280;4040;42.848;23.034;2023-01-09T09:04:06;95011.34;;;13.34;60.29
7990;BME280;4040;42.848;23.034;2023-01-09T09:09:55;95006.41;;;12.00;64.68
7990;BME280;4040;42.848;23.034;2023-01-09T09:15:44;94993.88;;;12.13;64.44
7990;BME280;4040;42.848;23.034;2023-01-09T09:25:56;94973.44;;;11.15;71.79
7990;BME280;4040;42.848;23.034;2023-01-09T09:31:44;94939.34;;;11.35;75.69
7990;BME280;4040;42.848;23.034;2023-01-09T09:37:33;94927.56;;;12.61;66.25
7990;BME280;4040;42.848;23.034;2023-01-09T09:43:46;94910.91;;;12.66;66.38
7990;BME280;4040;42.848;23.034;2023-01-09T09:50:05;94896.50;;;12.50;67.15
7990;BME280;4040;42.848;23.034;2023-01-09T09:56:00;94872.97;;;14.26;60.24
7990;BME280;4040;42.848;23.034;2023-01-09T10:01:54;94854.56;;;16.41;51.20
7990;BME280;4040;42.848;23.034;2023-01-09T10:07:47;94851.31;;;15.31;54.90
7990;BME280;4040;42.848;23.034;2023-01-09T10:13:37;94836.59;;;14.07;56.64
7990;BME280;4040;42.848;23.034;2023-01-09T10:20:05;94827.69;;;13.20;61.94
7990;BME280;4040;42.848;23.034;2023-01-09T10:26:02;94818.59;;;11.76;68.40
7990;BME280;4040;42.848;23.034;2023-01-09T10:32:06;94814.28;;;10.59;89.01
7990;BME280;4040;42.848;23.034;2023-01-09T10:38:00;94794.53;;;9.85;98.70
7990;BME280;4040;42.848;23.034;2023-01-09T10:43:55;94783.59;;;8.93;100.00
7990;BME280;4040;42.848;23.034;2023-01-09T10:49:46;94774.59;;;8.42;100.00
7990;BME280;4040;42.848;23.034;2023-01-09T10:55:41;94741.53;;;8.59;100.00
7990;BME280;4040;42.848;23.034;2023-01-09T11:01:32;94772.94;;;8.76;100.00
7990;BME280;4040;42.848;23.034;2023-01-09T11:07:25;94747.09;;;10.48;97.34
7990;BME280;4040;42.848;23.034;2023-01-09T11:13:20;94735.13;;;14.12;65.89
7990;BME280;4040;42.848;23.034;2023-01-09T11:19:12;94722.44;;;13.45;62.46
7990;BME280;4040;42.848;23.034;2023-01-09T11:25:02;94730.84;;;10.85;77.77
7990;BME280;4040;42.848;23.034;2023-01-09T11:30:56;94729.44;;;9.60;94.80
7990;BME280;4040;42.848;23.034;2023-01-09T11:36:47;94720.34;;;9.43;100.00
7990;BME280;4040;42.848;23.034;2023-01-09T11:42:37;94698.00;;;10.94;85.44
7990;BME280;4040;42.848;23.034;2023-01-09T11:48:52;94684.19;;;12.33;71.09
7990;BME280;4040;42.848;23.034;2023-01-09T11:54:46;94675.53;;;12.03;70.65
7990;BME280;4040;42.848;23.034;2023-01-09T12:00:45;94682.75;;;9.80;85.78
7990;BME280;4040;42.848;23.034;2023-01-09T12:06:41;94659.94;;;9.98;89.60
7990;BME280;4040;42.848;23.034;2023-01-09T12:12:40;94659.78;;;9.32;96.04
7990;BME280;4040;42.848;23.034;2023-01-09T12:18:46;94658.59;;;8.82;100.00
7990;BME280;4040;42.848;23.034;2023-01-09T12:29:25;94664.13;;;8.50;100.00
7990;BME280;4040;42.848;23.034;2023-01-09T12:35:27;94645.72;;;8.49;100.00
7990;BME280;4040;42.848;23.034;2023-01-09T12:41:46;94646.53;;;8.39;100.00
7990;BME280;4040;42.848;23.034;2023-01-09T12:47:46;94636.56;;;8.43;100.00
7990;BME280;4040;42.848;23.034;2023-01-09T12:53:39;94617.44;;;8.34;100.00
7990;BME280;4040;42.848;23.034;2023-01-09T12:59:31;94612.97;;;8.03;100.00
7990;BME280;4040;42.848;23.034;2023-01-09T13:05:30;94611.44;;;8.02;100.00
7990;BME280;4040;42.848;23.034;2023-01-09T13:11:24;94606.38;;;8.18;100.00
7990;BME280;4040;42.848;23.034;2023-01-09T13:17:19;94612.53;;;8.15;100.00
7990;BME280;4040;42.848;23.034;2023-01-09T13:23:29;94611.88;;;7.90;100.00
7990;BME280;4040;42.848;23.034;2023-01-09T13:29:25;94602.75;;;7.70;100.00
7990;BME280;4040;42.848;23.034;2023-01-09T13:35:16;94599.69;;;7.54;100.00
7990;BME280;4040;42.848;23.034;2023-01-09T13:41:10;94620.03;;;7.20;100.00
7990;BME280;4040;42.848;23.034;2023-01-09T13:47:19;94614.69;;;6.99;100.00
7990;BME280;4040;42.848;23.034;2023-01-09T13:53:42;94629.97;;;6.81;100.00
7990;BME280;4040;42.848;23.034;2023-01-09T13:59:32;94631.50;;;6.58;100.00
7990;BME280;4040;42.848;23.034;2023-01-09T14:11:43;94610.78;;;6.23;100.00
7990;BME280;4040;42.848;23.034;2023-01-09T14:17:36;94596.22;;;6.17;100.00
7990;BME280;4040;42.848;23.034;2023-01-09T14:23:27;94611.09;;;6.04;100.00
7990;BME280;4040;42.848;23.034;2023-01-09T14:29:46;94605.31;;;5.95;100.00
7990;BME280;4040;42.848;23.034;2023-01-09T14:35:42;94570.81;;;5.66;100.00
7990;BME280;4040;42.848;23.034;2023-01-09T14:41:35;94581.53;;;5.69;100.00
7990;BME280;4040;42.848;23.034;2023-01-09T14:47:57;94597.84;;;5.57;100.00
7990;BME280;4040;42.848;23.034;2023-01-09T14:53:50;94595.91;;;5.47;100.00
7990;BME280;4040;42.848;23.034;2023-01-09T14:59:54;94571.34;;;5.24;100.00
7990;BME280;4040;42.848;23.034;2023-01-09T15:05:43;94572.47;;;5.16;100.00
7990;BME280;4040;42.848;23.034;2023-01-09T15:11:37;94571.97;;;5.00;100.00
7990;BME280;4040;42.848;23.034;2023-01-09T15:17:29;94553.50;;;4.75;100.00
7990;BME280;4040;42.848;23.034;2023-01-09T15:23:21;94566.03;;;4.71;100.00
7990;BME280;4040;42.848;23.034;2023-01-09T15:29:14;94532.63;;;4.37;100.00
7990;BME280;4040;42.848;23.034;2023-01-09T15:35:04;94558.22;;;4.45;100.00
7990;BME280;4040;42.848;23.034;2023-01-09T15:40:54;94563.09;;;4.36;100.00
7990;BME280;4040;42.848;23.034;2023-01-09T15:46:45;94565.28;;;4.27;100.00
7990;BME280;4040;42.848;23.034;2023-01-09T15:52:36;94570.53;;;4.20;100.00
7990;BME280;4040;42.848;23.034;2023-01-09T15:58:27;94563.50;;;4.01;100.00
7990;BME280;4040;42.848;23.034;2023-01-09T16:04:18;94561.00;;;3.82;100.00
7990;BME280;4040;42.848;23.034;2023-01-09T16:10:20;94546.28;;;3.59;100.00
7990;BME280;4040;42.848;23.034;2023-01-09T16:16:10;94542.31;;;3.46;100.00
7990;BME280;4040;42.848;23.034;2023-01-09T16:22:02;94550.69;;;3.44;100.00
7990;BME280;4040;42.848;23.034;2023-01-09T16:31:57;94534.25;;;3.39;100.00
7990;BME280;4040;42.848;23.034;2023-01-09T16:37:48;94527.09;;;3.43;100.00
7990;BME280;4040;42.848;23.034;2023-01-09T16:43:36;94517.56;;;3.42;100.00
7990;BME280;4040;42.848;23.034;2023-01-09T16:49:25;94518.69;;;3.41;100.00
7990;BME280;4040;42.848;23.034;2023-01-09T16:55:16;94506.53;;;3.40;100.00
7990;BME280;4040;42.848;23.034;2023-01-09T17:01:05;94526.94;;;3.32;100.00
7990;BME280;4040;42.848;23.034;2023-01-09T17:06:54;94516.91;;;3.19;100.00
7990;BME280;4040;42.848;23.034;2023-01-09T17:12:44;94512.22;;;3.09;100.00
7990;BME280;4040;42.848;23.034;2023-01-09T17:18:33;94506.69;;;2.95;100.00
7990;BME280;4040;42.848;23.034;2023-01-09T17:24:21;94505.28;;;3.01;100.00
7990;BME280;4040;42.848;23.034;2023-01-09T17:34:50;94490.03;;;2.98;100.00
7990;BME280;4040;42.848;23.034;2023-01-09T17:40:40;94487.69;;;2.93;100.00
7990;BME280;4040;42.848;23.034;2023-01-09T17:46:31;94479.41;;;2.98;100.00
7990;BME280;4040;42.848;23.034;2023-01-09T17:52:22;94474.78;;;2.95;100.00
7990;BME280;4040;42.848;23.034;2023-01-09T17:58:23;94419.34;;;2.38;100.00
7990;BME280;4040;42.848;23.034;2023-01-09T18:04:12;94470.19;;;2.62;100.00
7990;BME280;4040;42.848;23.034;2023-01-09T18:10:06;94403.41;;;2.38;100.00
7990;BME280;4040;42.848;23.034;2023-01-09T18:15:54;94465.66;;;2.92;100.00
7990;BME280;4040;42.848;23.034;2023-01-09T18:21:43;94463.44;;;2.98;100.00
7990;BME280;4040;42.848;23.034;2023-01-09T18:27:37;94461.19;;;3.00;100.00
7990;BME280;4040;42.848;23.034;2023-01-09T18:37:47;94464.97;;;2.99;100.00
7990;BME280;4040;42.848;23.034;2023-01-09T18:43:38;94480.94;;;2.99;100.00
7990;BME280;4040;42.848;23.034;2023-01-09T18:49:26;94479.41;;;2.98;100.00
7990;BME280;4040;42.848;23.034;2023-01-09T18:55:15;94458.53;;;3.00;100.00
7990;BME280;4040;42.848;23.034;2023-01-09T19:01:05;94469.56;;;3.02;100.00
7990;BME280;4040;42.848;23.034;2023-01-09T19:06:54;94455.94;;;3.07;100.00
7990;BME280;4040;42.848;23.034;2023-01-09T19:12:43;94422.47;;;3.06;100.00
7990;BME280;4040;42.848;23.034;2023-01-09T19:18:35;94424.44;;;3.09;100.00
7990;BME280;4040;42.848;23.034;2023-01-09T19:24:25;94433.94;;;3.10;100.00
7990;BME280;4040;42.848;23.034;2023-01-09T19:30:14;94432.00;;;3.07;100.00
7990;BME280;4040;42.848;23.034;2023-01-09T19:40:26;94424.88;;;3.18;100.00
7990;BME280;4040;42.848;23.034;2023-01-09T19:46:17;94396.84;;;3.24;100.00
7990;BME280;4040;42.848;23.034;2023-01-09T19:52:06;94386.13;;;3.17;100.00
7990;BME280;4040;42.848;23.034;2023-01-09T19:57:56;94364.47;;;3.18;100.00
7990;BME280;4040;42.848;23.034;2023-01-09T20:03:46;94354.94;;;3.14;100.00
7990;BME280;4040;42.848;23.034;2023-01-09T20:09:34;94357.19;;;3.12;100.00
7990;BME280;4040;42.848;23.034;2023-01-09T20:15:25;94349.59;;;3.14;100.00
7990;BME280;4040;42.848;23.034;2023-01-09T20:21:15;94335.94;;;3.15;100.00
7990;BME280;4040;42.848;23.034;2023-01-09T20:27:04;94323.00;;;3.14;100.00
7990;BME280;4040;42.848;23.034;2023-01-09T20:32:54;94249.59;;;2.66;100.00
7990;BME280;4040;42.848;23.034;2023-01-09T20:43:05;94289.47;;;3.06;100.00
7990;BME280;4040;42.848;23.034;2023-01-09T20:48:58;94300.97;;;3.17;100.00
7990;BME280;4040;42.848;23.034;2023-01-09T20:54:49;94288.06;;;3.15;100.00
7990;BME280;4040;42.848;23.034;2023-01-09T21:00:38;94297.13;;;3.11;100.00
7990;BME280;4040;42.848;23.034;2023-01-09T21:06:28;94251.91;;;3.11;100.00
7990;BME280;4040;42.848;23.034;2023-01-09T21:12:16;94278.13;;;3.09;100.00
7990;BME280;4040;42.848;23.034;2023-01-09T21:18:21;94293.34;;;3.12;100.00
7990;BME280;4040;42.848;23.034;2023-01-09T21:24:11;94269.09;;;3.20;100.00
7990;BME280;4040;42.848;23.034;2023-01-09T21:30:00;94260.00;;;3.25;100.00
7990;BME280;4040;42.848;23.034;2023-01-09T21:35:52;94243.25;;;3.21;100.00
7990;BME280;4040;42.848;23.034;2023-01-09T21:46:05;94251.53;;;3.12;100.00
7990;BME280;4040;42.848;23.034;2023-01-09T21:52:12;94240.13;;;3.12;100.00
7990;BME280;4040;42.848;23.034;2023-01-09T21:58:00;94261.44;;;3.12;100.00
7990;BME280;4040;42.848;23.034;2023-01-09T22:03:54;94245.53;;;3.19;100.00
7990;BME280;4040;42.848;23.034;2023-01-09T22:09:42;94231.47;;;3.22;100.00
7990;BME280;4040;42.848;23.034;2023-01-09T22:15:32;94231.09;;;3.20;100.00
7990;BME280;4040;42.848;23.034;2023-01-09T22:21:23;94222.72;;;3.21;100.00
7990;BME280;4040;42.848;23.034;2023-01-09T22:27:12;94231.88;;;3.24;100.00
7990;BME280;4040;42.848;23.034;2023-01-09T22:33:01;94232.66;;;3.24;100.00
7990;BME280;4040;42.848;23.034;2023-01-09T22:38:53;94216.66;;;3.21;100.00
7990;BME280;4040;42.848;23.034;2023-01-09T22:49:04;94179.41;;;3.21;100.00
7990;BME280;4040;42.848;23.034;2023-01-09T22:54:55;94185.06;;;3.16;100.00
7990;BME280;4040;42.848;23.034;2023-01-09T23:08:30;94169.78;;;3.06;100.00
7990;BME280;4040;42.848;23.034;2023-01-09T23:14:20;94163.75;;;3.09;100.00
7990;BME280;4040;42.848;23.034;2023-01-09T23:20:10;94152.75;;;3.14;100.00
7990;BME280;4040;42.848;23.034;2023-01-09T23:26:02;94131.44;;;3.10;100.00
7990;BME280;4040;42.848;23.034;2023-01-09T23:31:52;94128.50;;;3.26;100.00
7990;BME280;4040;42.848;23.034;2023-01-09T23:37:41;94127.75;;;3.25;100.00
7990;BME280;4040;42.848;23.034;2023-01-09T23:43:31;94102.63;;;3.23;100.00
7990;BME280;4040;42.848;23.034;2023-01-09T23:49:20;94118.56;;;3.19;100.00
7990;BME280;4040;42.848;23.034;2023-01-09T23:55:09;94095.00;;;3.14;100.00
